Time;durP1;ratioP1;P1;durP2;ratioP2;P2;SDS_P1;SDS_P2;PMS_P1;PMS_P2;Temp;Humidity;BMP_temperature;BMP_pressure;BME280_temperature;BME280_humidity;BME280_pressure;Samples;Min_cycle;Max_cycle;Signal;HPM_P1;HPM_P2
2023/05/30 00:00:58;;;;;;;29.43;7.20;;;;;;;;;;5048289;28;20013;-61
2023/05/30 00:03:23;;;;;;;31.30;5.90;;;;;;;;;;5050609;28;20059;-63
2023/05/30 00:05:49;;;;;;;26.67;5.87;;;;;;;;;;5048691;28;20036;-62
2023/05/30 00:08:14;;;;;;;26.10;6.47;;;;;;;;;;5046609;28;20063;-61
2023/05/30 00:10:39;;;;;;;25.70;5.60;;;;;;;;;;5055272;28;20422;-61
2023/05/30 00:13:05;;;;;;;29.47;6.20;;;;;;;;;;5044817;28;20528;-62
2023/05/30 00:15:31;;;;;;;21.90;5.20;;;;;;;;;;5045407;28;20541;-63
2023/05/30 00:17:57;;;;;;;15.87;5.60;;;;;;;;;;5047452;28;20053;-61
2023/05/30 00:20:22;;;;;;;18.73;5.50;;;;;;;;;;5049089;28;20498;-61
2023/05/30 00:22:48;;;;;;;30.23;5.47;;;;;;;;;;5051175;28;20024;-61
2023/05/30 00:25:14;;;;;;;25.27;5.10;;;;;;;;;;5052849;28;20025;-61
2023/05/30 00:27:40;;;;;;;25.33;5.30;;;;;;;;;;5051089;28;20091;-61
2023/05/30 00:30:05;;;;;;;22.33;5.83;;;;;;;;;;5051411;28;20029;-61
2023/05/30 00:32:31;;;;;;;24.13;5.60;;;;;;;;;;5038293;28;20064;-60
2023/05/30 00:34:56;;;;;;;17.30;4.90;;;;;;;;;;5049257;28;20463;-62
2023/05/30 00:37:21;;;;;;;24.63;5.63;;;;;;;;;;5046404;28;20025;-60
2023/05/30 00:39:46;;;;;;;24.33;5.17;;;;;;;;;;5046626;28;20487;-62
2023/05/30 00:42:12;;;;;;;22.93;6.20;;;;;;;;;;5047461;28;20621;-61
2023/05/30 00:44:37;;;;;;;22.70;5.83;;;;;;;;;;5047311;28;20029;-63
2023/05/30 00:47:03;;;;;;;22.70;6.27;;;;;;;;;;5038562;28;20381;-61
2023/05/30 00:49:29;;;;;;;16.63;5.10;;;;;;;;;;5054856;28;20495;-60
2023/05/30 00:51:55;;;;;;;24.17;5.40;;;;;;;;;;5050370;28;20040;-61
2023/05/30 00:54:21;;;;;;;25.07;5.63;;;;;;;;;;5041782;28;20066;-62
2023/05/30 00:56:47;;;;;;;20.60;5.57;;;;;;;;;;5044941;28;20079;-63
2023/05/30 00:59:12;;;;;;;27.97;6.00;;;;;;;;;;5037102;28;20056;-61
2023/05/30 01:04:05;;;;;;;20.87;5.90;;;;;;;;;;5071929;28;20640;-69
2023/05/30 01:06:30;;;;;;;24.23;5.67;;;;;;;;;;5085536;28;20024;-68
2023/05/30 01:08:59;;;;;;;23.90;6.40;;;;;;;;;;5086687;28;20016;-69
2023/05/30 01:11:41;;;;;;;22.97;6.50;;;;;;;;;;5089006;28;20013;-69
2023/05/30 01:14:25;;;;;;;27.33;6.40;;;;;;;;;;5094638;28;20016;-69
2023/05/30 01:16:53;;;;;;;21.23;5.67;;;;;;;;;;5081616;28;20016;-68
2023/05/30 01:19:45;;;;;;;21.97;6.20;;;;;;;;;;5089941;28;20483;-69
2023/05/30 01:22:11;;;;;;;;;;;;;;;;;;5092275;28;20528;-68
2023/05/30 01:24:41;;;;;;;23.33;5.23;;;;;;;;;;5087242;28;19999;-68
2023/05/30 01:27:29;;;;;;;22.30;6.03;;;;;;;;;;5071846;28;20788;-68
2023/05/30 01:29:56;;;;;;;24.00;6.00;;;;;;;;;;5075545;28;20047;-69
2023/05/30 01:32:22;;;;;;;26.53;6.23;;;;;;;;;;5086435;28;20057;-69
2023/05/30 01:34:48;;;;;;;21.30;6.23;;;;;;;;;;5091342;28;20132;-69
2023/05/30 01:37:13;;;;;;;27.40;6.23;;;;;;;;;;5089509;28;20385;-69
2023/05/30 01:39:38;;;;;;;26.27;7.10;;;;;;;;;;5090739;28;20123;-69
2023/05/30 01:42:24;;;;;;;21.93;6.40;;;;;;;;;;5088249;28;20626;-69
2023/05/30 01:45:01;;;;;;;14.77;5.77;;;;;;;;;;5082907;28;20032;-69
2023/05/30 01:47:56;;;;;;;22.00;6.67;;;;;;;;;;5081036;28;20492;-69
2023/05/30 01:50:23;;;;;;;19.43;6.30;;;;;;;;;;4988138;28;20121;-69
2023/05/30 01:52:56;;;;;;;23.80;6.37;;;;;;;;;;4989136;28;20026;-69
2023/05/30 01:55:23;;;;;;;20.27;6.27;;;;;;;;;;4984644;28;20037;-68
2023/05/30 01:57:48;;;;;;;22.23;5.87;;;;;;;;;;4986566;28;20026;-69
2023/05/30 02:00:14;;;;;;;18.70;5.90;;;;;;;;;;4978509;28;20133;-68
2023/05/30 02:02:40;;;;;;;22.40;5.80;;;;;;;;;;4984437;28;20105;-69
2023/05/30 02:05:06;;;;;;;24.63;6.27;;;;;;;;;;4993335;28;20480;-69
2023/05/30 02:07:31;;;;;;;21.70;6.30;;;;;;;;;;4985999;28;20026;-69
2023/05/30 02:09:57;;;;;;;20.77;5.90;;;;;;;;;;4984203;28;20538;-68
2023/05/30 02:12:22;;;;;;;20.03;5.67;;;;;;;;;;4994173;28;20026;-69
2023/05/30 02:14:47;;;;;;;23.97;6.50;;;;;;;;;;4989508;28;20022;-69
2023/05/30 02:17:13;;;;;;;21.27;5.70;;;;;;;;;;4971394;28;20476;-69
2023/05/30 02:19:39;;;;;;;22.63;6.23;;;;;;;;;;4982260;28;20061;-68
2023/05/30 02:22:05;;;;;;;18.13;6.10;;;;;;;;;;4985874;28;20057;-69
2023/05/30 02:24:31;;;;;;;18.53;5.40;;;;;;;;;;4984705;28;20027;-68
2023/05/30 02:26:56;;;;;;;21.57;5.17;;;;;;;;;;5048226;28;20081;-69
2023/05/30 02:29:22;;;;;;;23.47;5.70;;;;;;;;;;5086176;28;20024;-68
2023/05/30 02:31:47;;;;;;;20.73;5.60;;;;;;;;;;5078292;28;20020;-69
2023/05/30 02:34:12;;;;;;;24.53;5.43;;;;;;;;;;5081773;28;20016;-69
2023/05/30 02:36:38;;;;;;;25.00;6.00;;;;;;;;;;5080609;28;20519;-69
2023/05/30 02:39:06;;;;;;;18.17;5.37;;;;;;;;;;5079046;28;20533;-68
2023/05/30 02:41:31;;;;;;;21.23;5.03;;;;;;;;;;5086333;28;20024;-68
2023/05/30 02:43:56;;;;;;;19.50;5.30;;;;;;;;;;5084406;28;20069;-69
2023/05/30 02:46:22;;;;;;;19.23;5.43;;;;;;;;;;5082724;28;20035;-69
2023/05/30 02:48:47;;;;;;;20.10;5.27;;;;;;;;;;5080577;28;20470;-68
2023/05/30 02:51:12;;;;;;;21.33;6.50;;;;;;;;;;5084713;28;20074;-69
2023/05/30 02:53:38;;;;;;;23.23;6.00;;;;;;;;;;5083362;28;20104;-69
2023/05/30 02:56:03;;;;;;;18.13;5.60;;;;;;;;;;5083650;28;20456;-69
2023/05/30 02:58:28;;;;;;;22.53;6.73;;;;;;;;;;5087229;28;20009;-68
2023/05/30 03:00:54;;;;;;;24.20;6.17;;;;;;;;;;5087680;28;20503;-68
2023/05/30 03:03:21;;;;;;;23.37;5.60;;;;;;;;;;5090507;28;20047;-69
2023/05/30 03:05:49;;;;;;;18.50;5.63;;;;;;;;;;5079978;28;20510;-68
2023/05/30 03:08:14;;;;;;;27.03;5.67;;;;;;;;;;5082761;28;20020;-68
2023/05/30 03:10:39;;;;;;;24.43;5.87;;;;;;;;;;5081352;28;20024;-68
2023/05/30 03:13:05;;;;;;;17.93;5.43;;;;;;;;;;5092373;28;20035;-68
2023/05/30 03:15:30;;;;;;;24.53;6.03;;;;;;;;;;5091995;28;20020;-68
2023/05/30 03:17:57;;;;;;;23.70;5.77;;;;;;;;;;5082037;28;20106;-68
2023/05/30 03:20:23;;;;;;;21.27;5.80;;;;;;;;;;5081463;28;20024;-68
2023/05/30 03:22:48;;;;;;;21.40;5.90;;;;;;;;;;5080570;28;20369;-69
2023/05/30 03:25:13;;;;;;;23.07;5.80;;;;;;;;;;5080337;28;20020;-68
2023/05/30 03:27:39;;;;;;;24.53;6.80;;;;;;;;;;5086581;28;20075;-68
2023/05/30 03:30:05;;;;;;;25.87;5.83;;;;;;;;;;5084843;28;20103;-68
2023/05/30 03:32:31;;;;;;;20.23;5.77;;;;;;;;;;5074240;28;20020;-68
2023/05/30 03:34:57;;;;;;;24.57;6.17;;;;;;;;;;5083658;28;20457;-68
2023/05/30 03:37:22;;;;;;;21.03;6.17;;;;;;;;;;5080994;28;20031;-68
2023/05/30 03:39:48;;;;;;;19.53;6.20;;;;;;;;;;5086600;28;20040;-68
2023/05/30 03:42:13;;;;;;;23.50;6.27;;;;;;;;;;5082531;28;20032;-69
2023/05/30 03:44:38;;;;;;;26.20;5.93;;;;;;;;;;5091953;28;20057;-68
2023/05/30 03:47:04;;;;;;;24.97;5.93;;;;;;;;;;5085564;28;20500;-68
2023/05/30 03:49:29;;;;;;;17.50;5.77;;;;;;;;;;5091164;28;20533;-68
2023/05/30 03:51:55;;;;;;;22.87;5.97;;;;;;;;;;5086524;28;20614;-69
2023/05/30 03:54:20;;;;;;;19.73;5.63;;;;;;;;;;5084995;28;20055;-69
2023/05/30 03:56:45;;;;;;;21.17;5.80;;;;;;;;;;5082613;28;20046;-68
2023/05/30 03:59:10;;;;;;;19.40;5.67;;;;;;;;;;5082767;28;20373;-68
2023/05/30 04:01:36;;;;;;;17.30;5.20;;;;;;;;;;5083358;28;20023;-68
2023/05/30 04:04:01;;;;;;;16.43;5.40;;;;;;;;;;5093262;28;20135;-68
2023/05/30 04:06:26;;;;;;;18.40;5.47;;;;;;;;;;5077507;28;20016;-68
2023/05/30 04:08:52;;;;;;;22.23;5.83;;;;;;;;;;5094517;28;20020;-68
2023/05/30 04:11:17;;;;;;;15.10;5.33;;;;;;;;;;5088541;28;20085;-68
2023/05/30 04:13:43;;;;;;;17.37;5.33;;;;;;;;;;5085106;28;20024;-68
2023/05/30 04:16:08;;;;;;;16.23;5.00;;;;;;;;;;5087448;28;20028;-68
2023/05/30 04:18:33;;;;;;;19.13;5.20;;;;;;;;;;5084772;28;20153;-68
2023/05/30 04:20:58;;;;;;;18.30;4.63;;;;;;;;;;5067218;28;20434;-68
2023/05/30 04:23:24;;;;;;;17.13;4.63;;;;;;;;;;5085951;28;20552;-68
2023/05/30 04:25:49;;;;;;;14.10;4.57;;;;;;;;;;5086243;28;20023;-68
2023/05/30 04:28:17;;;;;;;15.37;4.13;;;;;;;;;;5081793;28;20099;-68
2023/05/30 04:30:48;;;;;;;16.00;3.70;;;;;;;;;;5087064;28;20117;-68
2023/05/30 04:33:14;;;;;;;18.55;4.30;;;;;;;;;;5092551;28;20031;-68
2023/05/30 04:35:41;;;;;;;13.30;3.63;;;;;;;;;;5091027;28;20024;-68
2023/05/30 04:38:06;;;;;;;14.80;3.43;;;;;;;;;;5081083;28;20074;-68
2023/05/30 04:40:32;;;;;;;14.23;4.00;;;;;;;;;;5089607;28;20020;-67
2023/05/30 04:42:59;;;;;;;13.07;3.97;;;;;;;;;;5089927;28;20444;-68
2023/05/30 04:45:28;;;;;;;18.27;3.70;;;;;;;;;;5071879;28;20478;-67
2023/05/30 04:47:54;;;;;;;12.40;3.70;;;;;;;;;;5091272;28;20031;-67
2023/05/30 04:50:20;;;;;;;12.35;3.40;;;;;;;;;;5089468;28;20031;-68
2023/05/30 04:52:46;;;;;;;11.50;2.90;;;;;;;;;;5084255;28;20035;-68
2023/05/30 04:55:12;;;;;;;12.60;3.33;;;;;;;;;;5092469;28;20473;-68
2023/05/30 04:57:40;;;;;;;15.95;4.00;;;;;;;;;;5099365;28;20024;-67
2023/05/30 05:00:15;;;;;;;14.68;3.35;;;;;;;;;;5093831;28;20025;-68
2023/05/30 05:02:41;;;;;;;14.30;3.53;;;;;;;;;;5086998;28;20422;-67
2023/05/30 05:05:06;;;;;;;14.82;3.50;;;;;;;;;;5054973;28;20020;-67
2023/05/30 05:07:32;;;;;;;10.75;3.17;;;;;;;;;;5074596;28;20458;-68
2023/05/30 05:09:57;;;;;;;15.57;3.50;;;;;;;;;;5073779;28;20028;-68
2023/05/30 05:12:22;;;;;;;13.73;3.30;;;;;;;;;;5088385;28;20393;-68
2023/05/30 05:14:48;;;;;;;17.10;3.58;;;;;;;;;;5063019;28;20024;-68
2023/05/30 05:17:13;;;;;;;19.77;3.25;;;;;;;;;;5073675;28;20017;-68
2023/05/30 05:19:39;;;;;;;14.30;3.80;;;;;;;;;;5070743;28;20029;-68
2023/05/30 05:22:05;;;;;;;16.27;3.33;;;;;;;;;;5094717;28;20058;-67
2023/05/30 05:24:31;;;;;;;14.55;3.15;;;;;;;;;;5096067;28;20031;-68
2023/05/30 05:26:56;;;;;;;11.20;3.10;;;;;;;;;;5096529;28;20024;-68
2023/05/30 05:29:21;;;;;;;11.80;3.33;;;;;;;;;;5092773;28;20028;-68
2023/05/30 05:31:46;;;;;;;13.52;3.80;;;;;;;;;;5096473;28;20028;-68
2023/05/30 05:34:12;;;;;;;18.67;3.70;;;;;;;;;;5096444;28;20377;-68
2023/05/30 05:36:37;;;;;;;13.20;3.20;;;;;;;;;;5094669;28;20024;-68
2023/05/30 05:39:02;;;;;;;16.20;3.25;;;;;;;;;;5061244;28;20413;-68
2023/05/30 05:41:28;;;;;;;13.75;3.58;;;;;;;;;;5055513;28;20020;-68
2023/05/30 05:43:54;;;;;;;14.55;3.22;;;;;;;;;;5080761;28;20024;-68
2023/05/30 05:46:19;;;;;;;17.83;3.50;;;;;;;;;;5094046;28;20047;-68
2023/05/30 05:48:44;;;;;;;16.20;3.67;;;;;;;;;;5075829;28;20056;-68
2023/05/30 05:51:11;;;;;;;14.27;3.33;;;;;;;;;;5073608;28;20025;-69
2023/05/30 05:53:36;;;;;;;15.65;3.70;;;;;;;;;;5080887;28;20489;-69
2023/05/30 05:56:01;;;;;;;16.88;4.10;;;;;;;;;;5075766;28;20031;-68
2023/05/30 05:58:26;;;;;;;13.18;3.63;;;;;;;;;;5063865;28;20034;-69
2023/05/30 06:00:52;;;;;;;14.18;4.28;;;;;;;;;;5054858;28;20505;-68
2023/05/30 06:03:17;;;;;;;17.27;4.05;;;;;;;;;;5079113;28;20047;-68
2023/05/30 06:05:42;;;;;;;17.50;4.03;;;;;;;;;;5111969;28;20049;-68
2023/05/30 06:08:08;;;;;;;15.75;3.70;;;;;;;;;;5085227;28;20024;-68
2023/05/30 06:10:33;;;;;;;16.00;4.40;;;;;;;;;;5073810;28;20024;-68
2023/05/30 06:12:58;;;;;;;14.88;3.60;;;;;;;;;;5081569;28;20029;-69
2023/05/30 06:15:23;;;;;;;12.48;3.53;;;;;;;;;;5100531;28;20012;-68
2023/05/30 06:17:49;;;;;;;18.23;4.43;;;;;;;;;;5093743;28;20024;-68
2023/05/30 06:20:14;;;;;;;18.35;4.32;;;;;;;;;;5094018;28;20028;-68
2023/05/30 06:22:39;;;;;;;21.10;4.78;;;;;;;;;;5100651;28;20020;-68
2023/05/30 06:25:06;;;;;;;15.95;3.72;;;;;;;;;;5093631;28;20047;-68
2023/05/30 06:27:31;;;;;;;19.85;3.88;;;;;;;;;;5092952;28;20555;-68
2023/05/30 06:29:56;;;;;;;22.10;4.80;;;;;;;;;;5060048;28;20021;-69
2023/05/30 06:32:22;;;;;;;21.00;4.78;;;;;;;;;;5077221;28;20040;-68
2023/05/30 06:34:47;;;;;;;18.20;4.65;;;;;;;;;;5077451;28;20016;-68
2023/05/30 06:37:13;;;;;;;18.15;4.57;;;;;;;;;;5059683;28;20021;-68
2023/05/30 06:39:38;;;;;;;18.75;4.85;;;;;;;;;;5079179;28;20031;-69
2023/05/30 06:42:04;;;;;;;20.42;5.38;;;;;;;;;;5077958;28;20024;-68
2023/05/30 06:44:29;;;;;;;20.65;5.05;;;;;;;;;;5105354;28;20024;-68
2023/05/30 06:46:55;;;;;;;20.70;5.30;;;;;;;;;;5108108;28;20012;-68
2023/05/30 06:49:20;;;;;;;19.85;5.93;;;;;;;;;;5106615;28;20480;-68
2023/05/30 06:51:46;;;;;;;22.80;5.30;;;;;;;;;;5117494;28;20044;-68
2023/05/30 06:54:11;;;;;;;19.35;5.40;;;;;;;;;;5109853;28;20034;-69
2023/05/30 06:56:36;;;;;;;14.18;5.00;;;;;;;;;;5097388;28;20019;-69
2023/05/30 06:59:01;;;;;;;16.05;4.95;;;;;;;;;;5103167;28;20011;-69
2023/05/30 07:01:27;;;;;;;16.13;5.07;;;;;;;;;;5095562;28;20016;-69
2023/05/30 07:03:52;;;;;;;15.85;5.07;;;;;;;;;;5096774;28;20064;-69
2023/05/30 07:06:17;;;;;;;23.33;5.90;;;;;;;;;;5097151;28;20016;-69
2023/05/30 07:08:42;;;;;;;20.70;4.88;;;;;;;;;;5102134;28;20018;-69
2023/05/30 07:11:08;;;;;;;15.43;4.90;;;;;;;;;;5117509;28;20055;-68
2023/05/30 07:13:33;;;;;;;18.73;5.32;;;;;;;;;;5105434;28;20027;-69
2023/05/30 07:15:58;;;;;;;14.60;4.63;;;;;;;;;;5099528;28;20188;-69
2023/05/30 07:18:24;;;;;;;16.63;4.70;;;;;;;;;;5097054;28;20476;-69
2023/05/30 07:20:49;;;;;;;19.05;5.30;;;;;;;;;;5097456;28;20028;-69
2023/05/30 07:23:14;;;;;;;13.63;4.13;;;;;;;;;;5097702;28;20054;-69
2023/05/30 07:25:40;;;;;;;16.48;4.95;;;;;;;;;;5109921;28;20031;-69
2023/05/30 07:28:05;;;;;;;15.15;5.10;;;;;;;;;;5114067;28;20019;-69
2023/05/30 07:30:31;;;;;;;14.35;5.05;;;;;;;;;;5117246;28;20061;-69
2023/05/30 07:32:56;;;;;;;17.23;4.95;;;;;;;;;;5117317;28;20024;-69
2023/05/30 07:35:21;;;;;;;16.30;5.22;;;;;;;;;;5116294;28;20423;-69
2023/05/30 07:37:47;;;;;;;14.48;4.70;;;;;;;;;;5117119;28;20023;-69
2023/05/30 07:40:17;;;;;;;19.02;4.53;;;;;;;;;;5113512;28;20015;-69
2023/05/30 07:42:42;;;;;;;13.85;4.43;;;;;;;;;;5097506;28;20101;-69
2023/05/30 07:45:07;;;;;;;13.40;4.20;;;;;;;;;;5116911;28;20019;-69
2023/05/30 07:47:33;;;;;;;15.23;4.57;;;;;;;;;;5116793;28;20019;-69
2023/05/30 07:49:58;;;;;;;15.50;3.90;;;;;;;;;;5116906;28;20028;-69
2023/05/30 07:52:24;;;;;;;13.07;4.03;;;;;;;;;;5110708;28;20031;-69
2023/05/30 07:54:49;;;;;;;10.27;4.10;;;;;;;;;;5116465;28;20130;-70
2023/05/30 07:57:15;;;;;;;11.48;4.07;;;;;;;;;;5098349;28;20008;-69
2023/05/30 07:59:41;;;;;;;13.07;4.40;;;;;;;;;;5094102;28;20074;-69
2023/05/30 08:02:06;;;;;;;9.38;3.72;;;;;;;;;;5096140;28;20098;-69
2023/05/30 08:04:31;;;;;;;13.23;3.40;;;;;;;;;;5109498;28;20024;-69
2023/05/30 08:06:57;;;;;;;8.77;3.45;;;;;;;;;;5096575;28;20055;-69
2023/05/30 08:09:22;;;;;;;10.07;3.60;;;;;;;;;;5096313;28;20027;-69
2023/05/30 08:11:47;;;;;;;12.80;4.30;;;;;;;;;;5095796;28;20035;-68
2023/05/30 08:14:13;;;;;;;11.43;4.38;;;;;;;;;;5106978;28;20015;-67
2023/05/30 08:16:39;;;;;;;9.13;3.97;;;;;;;;;;5116692;28;20404;-68
2023/05/30 08:19:04;;;;;;;14.38;5.28;;;;;;;;;;5097820;28;20023;-69
2023/05/30 08:21:31;;;;;;;11.00;5.20;;;;;;;;;;5095934;28;20020;-68
2023/05/30 08:23:57;;;;;;;9.90;3.92;;;;;;;;;;5106942;28;20046;-68
2023/05/30 08:26:24;;;;;;;11.63;4.50;;;;;;;;;;5116643;28;20012;-68
2023/05/30 08:28:50;;;;;;;11.07;4.15;;;;;;;;;;5113135;28;20028;-69
2023/05/30 08:31:15;;;;;;;6.68;3.70;;;;;;;;;;5116384;28;20528;-69
2023/05/30 08:33:41;;;;;;;9.30;3.47;;;;;;;;;;5114888;28;20393;-68
2023/05/30 08:36:06;;;;;;;6.85;3.45;;;;;;;;;;5115621;28;20023;-69
2023/05/30 08:38:31;;;;;;;10.27;4.00;;;;;;;;;;5112761;28;20048;-68
2023/05/30 08:40:56;;;;;;;7.68;3.20;;;;;;;;;;5095509;28;20012;-68
2023/05/30 08:43:22;;;;;;;8.93;3.72;;;;;;;;;;5108454;28;20024;-68
2023/05/30 08:45:50;;;;;;;7.20;3.70;;;;;;;;;;5115522;28;20068;-68
2023/05/30 08:48:17;;;;;;;6.63;3.28;;;;;;;;;;5113412;28;20026;-69
2023/05/30 08:50:43;;;;;;;7.85;3.50;;;;;;;;;;5110553;28;20053;-68
2023/05/30 08:53:11;;;;;;;6.68;3.35;;;;;;;;;;5114619;28;20016;-68
2023/05/30 08:55:43;;;;;;;6.80;3.15;;;;;;;;;;5116246;28;20074;-68
2023/05/30 08:58:27;;;;;;;6.45;3.08;;;;;;;;;;5115961;28;20023;-68
2023/05/30 09:00:53;;;;;;;8.40;3.20;;;;;;;;;;5115872;28;20578;-68
2023/05/30 09:03:18;;;;;;;6.40;2.80;;;;;;;;;;5098509;28;20036;-68
2023/05/30 09:05:45;;;;;;;5.10;2.25;;;;;;;;;;5094155;28;20019;-69
2023/05/30 09:08:11;;;;;;;9.88;2.78;;;;;;;;;;5095494;28;20020;-69
2023/05/30 09:10:37;;;;;;;5.53;2.28;;;;;;;;;;5115129;28;20020;-69
2023/05/30 09:13:02;;;;;;;7.53;2.70;;;;;;;;;;5116154;28;20380;-69
2023/05/30 09:15:27;;;;;;;5.28;2.30;;;;;;;;;;5112374;28;20121;-69
2023/05/30 09:17:53;;;;;;;6.20;2.53;;;;;;;;;;5111746;28;20024;-69
2023/05/30 09:20:20;;;;;;;6.78;2.85;;;;;;;;;;5113906;28;20025;-68
2023/05/30 09:22:45;;;;;;;7.15;2.67;;;;;;;;;;5113902;28;20024;-69
2023/05/30 09:25:12;;;;;;;6.88;2.67;;;;;;;;;;5116656;28;20384;-68
2023/05/30 09:27:38;;;;;;;7.93;3.00;;;;;;;;;;5116143;28;20102;-69
2023/05/30 09:30:10;;;;;;;6.45;2.22;;;;;;;;;;5111168;28;20054;-68
2023/05/30 09:32:36;;;;;;;5.65;2.40;;;;;;;;;;5117584;28;20092;-69
2023/05/30 09:35:07;;;;;;;5.15;2.30;;;;;;;;;;5116750;28;20020;-69
2023/05/30 09:37:37;;;;;;;5.60;2.45;;;;;;;;;;5117437;28;20090;-69
2023/05/30 09:40:04;;;;;;;9.57;2.65;;;;;;;;;;5093616;28;20023;-68
2023/05/30 09:43:01;;;;;;;8.90;2.10;;;;;;;;;;5094871;28;20043;-68
2023/05/30 09:45:27;;;;;;;5.05;2.20;;;;;;;;;;5040682;28;20060;-69
2023/05/30 09:47:52;;;;;;;5.45;2.50;;;;;;;;;;5068738;28;20023;-68
2023/05/30 09:50:19;;;;;;;7.60;2.45;;;;;;;;;;5093538;28;20028;-69
2023/05/30 09:52:45;;;;;;;4.75;2.42;;;;;;;;;;5094900;28;20023;-69
2023/05/30 09:55:14;;;;;;;6.90;2.88;;;;;;;;;;5094336;28;20016;-69
2023/05/30 09:57:40;;;;;;;5.95;3.00;;;;;;;;;;5093873;28;20008;-68
2023/05/30 10:00:09;;;;;;;8.38;4.20;;;;;;;;;;5098201;28;20026;-69
2023/05/30 10:02:42;;;;;;;6.78;4.22;;;;;;;;;;5114753;28;20044;-68
2023/05/30 10:05:18;;;;;;;6.85;3.50;;;;;;;;;;5095319;28;20020;-69
2023/05/30 10:07:43;;;;;;;8.82;3.63;;;;;;;;;;5092952;28;20432;-68
2023/05/30 10:10:09;;;;;;;8.63;3.00;;;;;;;;;;5094252;28;20028;-69
2023/05/30 10:12:35;;;;;;;6.13;3.10;;;;;;;;;;5075057;28;20035;-68
2023/05/30 10:15:00;;;;;;;5.25;3.15;;;;;;;;;;5080359;28;20069;-68
2023/05/30 10:17:27;;;;;;;7.10;3.35;;;;;;;;;;5098227;28;20111;-69
2023/05/30 10:20:02;;;;;;;6.45;3.88;;;;;;;;;;5094368;28;20068;-69
2023/05/30 10:22:28;;;;;;;9.32;4.93;;;;;;;;;;5098847;28;20099;-69
2023/05/30 10:24:55;;;;;;;8.82;5.53;;;;;;;;;;5115108;28;20473;-69
2023/05/30 10:27:41;;;;;;;7.75;5.72;;;;;;;;;;5108395;28;20032;-68
2023/05/30 10:30:11;;;;;;;6.97;4.95;;;;;;;;;;5109511;28;20509;-69
2023/05/30 10:32:38;;;;;;;9.23;4.60;;;;;;;;;;5112458;28;20495;-68
2023/05/30 10:35:18;;;;;;;9.02;5.22;;;;;;;;;;5112935;28;20023;-69
2023/05/30 10:37:43;;;;;;;9.45;5.55;;;;;;;;;;5111023;28;20141;-69
2023/05/30 10:40:23;;;;;;;10.82;5.70;;;;;;;;;;5111566;28;20050;-69
2023/05/30 10:43:07;;;;;;;7.97;4.80;;;;;;;;;;5102844;28;20031;-69
2023/05/30 10:46:05;;;;;;;9.15;3.80;;;;;;;;;;5111506;28;20024;-68
2023/05/30 10:48:53;;;;;;;6.70;3.40;;;;;;;;;;5034643;28;20043;-68
2023/05/30 10:51:19;;;;;;;7.07;3.53;;;;;;;;;;5083030;28;20025;-69
2023/05/30 10:53:45;;;;;;;5.53;3.00;;;;;;;;;;5093784;28;20020;-68
2023/05/30 10:56:25;;;;;;;5.65;2.90;;;;;;;;;;5094172;28;20020;-68
2023/05/30 10:58:52;;;;;;;4.75;2.60;;;;;;;;;;5092737;28;20385;-69
2023/05/30 11:01:31;;;;;;;5.45;2.60;;;;;;;;;;5094091;28;20541;-69
2023/05/30 11:04:01;;;;;;;6.25;2.53;;;;;;;;;;5094091;28;20040;-68
2023/05/30 11:06:27;;;;;;;9.38;3.67;;;;;;;;;;5095405;28;20012;-69
2023/05/30 11:08:53;;;;;;;4.80;2.63;;;;;;;;;;5100644;28;20022;-68
2023/05/30 11:11:19;;;;;;;6.65;3.20;;;;;;;;;;5104568;28;20055;-68
2023/05/30 11:13:46;;;;;;;8.27;3.20;;;;;;;;;;5109422;28;20087;-69
2023/05/30 11:16:21;;;;;;;6.15;3.20;;;;;;;;;;5111822;28;20099;-69
2023/05/30 11:18:49;;;;;;;6.28;3.15;;;;;;;;;;5117638;28;20087;-69
2023/05/30 11:21:15;;;;;;;7.88;3.10;;;;;;;;;;5117325;28;20370;-69
2023/05/30 11:23:58;;;;;;;9.32;3.03;;;;;;;;;;5118409;28;20022;-68
2023/05/30 11:26:44;;;;;;;6.35;3.33;;;;;;;;;;5119107;28;20019;-68
2023/05/30 11:29:31;;;;;;;8.30;4.18;;;;;;;;;;5115319;28;20088;-69
2023/05/30 11:31:57;;;;;;;8.07;4.75;;;;;;;;;;5118672;28;20030;-68
2023/05/30 11:34:22;;;;;;;9.48;5.00;;;;;;;;;;5118002;28;20091;-69
2023/05/30 11:36:48;;;;;;;10.13;4.97;;;;;;;;;;5099595;28;20019;-68
2023/05/30 11:39:13;;;;;;;7.80;5.03;;;;;;;;;;5114160;28;20386;-69
2023/05/30 11:41:39;;;;;;;7.07;5.00;;;;;;;;;;5117331;28;20019;-68
2023/05/30 11:44:05;;;;;;;9.82;5.30;;;;;;;;;;5107035;28;20106;-68
2023/05/30 11:46:31;;;;;;;9.07;4.90;;;;;;;;;;5100683;28;20066;-70
2023/05/30 11:48:57;;;;;;;8.15;4.38;;;;;;;;;;5078908;28;20070;-68
2023/05/30 11:51:22;;;;;;;7.15;3.80;;;;;;;;;;5097857;28;20024;-69
2023/05/30 11:53:48;;;;;;;7.13;3.53;;;;;;;;;;5096857;28;20025;-69
2023/05/30 11:56:14;;;;;;;6.30;3.40;;;;;;;;;;5096714;28;20466;-69
2023/05/30 11:58:39;;;;;;;6.13;2.85;;;;;;;;;;5100695;28;20023;-69
2023/05/30 12:01:05;;;;;;;8.88;3.30;;;;;;;;;;5117132;28;20384;-69
2023/05/30 12:03:31;;;;;;;6.93;3.50;;;;;;;;;;5117502;28;20063;-69
2023/05/30 12:05:57;;;;;;;6.30;3.60;;;;;;;;;;5103570;28;20031;-68
2023/05/30 12:08:24;;;;;;;8.27;4.18;;;;;;;;;;5099718;28;20027;-69
2023/05/30 12:10:50;;;;;;;6.78;3.35;;;;;;;;;;5090556;28;20020;-68
2023/05/30 12:13:16;;;;;;;9.70;3.80;;;;;;;;;;5079103;28;20082;-69
2023/05/30 12:15:42;;;;;;;9.82;3.60;;;;;;;;;;5117297;28;20465;-68
2023/05/30 12:18:08;;;;;;;9.23;3.88;;;;;;;;;;5116154;28;20023;-69
2023/05/30 12:20:41;;;;;;;6.43;3.55;;;;;;;;;;5112385;28;20056;-69
2023/05/30 12:23:06;;;;;;;6.85;3.38;;;;;;;;;;5117303;28;20388;-69
2023/05/30 12:25:32;;;;;;;5.88;3.10;;;;;;;;;;5117124;28;20019;-69
2023/05/30 12:27:57;;;;;;;8.07;3.30;;;;;;;;;;5111983;28;20026;-69
2023/05/30 12:30:23;;;;;;;8.55;3.17;;;;;;;;;;5117135;28;20468;-68
2023/05/30 12:32:48;;;;;;;6.07;3.15;;;;;;;;;;5112456;28;20026;-69
2023/05/30 12:35:14;;;;;;;5.78;2.80;;;;;;;;;;5094923;28;20108;-69
2023/05/30 12:37:39;;;;;;;5.38;2.75;;;;;;;;;;5073876;28;20058;-69
2023/05/30 12:40:05;;;;;;;5.75;2.78;;;;;;;;;;5102437;28;20373;-70
2023/05/30 12:42:31;;;;;;;7.20;2.78;;;;;;;;;;5111634;28;20062;-69
2023/05/30 12:44:58;;;;;;;6.03;2.58;;;;;;;;;;5115823;28;20044;-69
2023/05/30 12:47:23;;;;;;;7.22;2.92;;;;;;;;;;5115167;28;20395;-69
2023/05/30 12:49:49;;;;;;;5.22;2.60;;;;;;;;;;5095838;28;20020;-69
2023/05/30 12:52:17;;;;;;;4.50;2.30;;;;;;;;;;5095667;28;20020;-69
2023/05/30 12:54:42;;;;;;;5.00;2.30;;;;;;;;;;5116967;28;20541;-70
2023/05/30 12:57:08;;;;;;;5.30;2.45;;;;;;;;;;5111682;28;20040;-69
2023/05/30 12:59:34;;;;;;;5.18;2.15;;;;;;;;;;5108876;28;20028;-69
2023/05/30 13:01:59;;;;;;;3.40;1.90;;;;;;;;;;5112305;28;20024;-69
2023/05/30 13:04:24;;;;;;;4.65;1.98;;;;;;;;;;5116053;28;20035;-69
2023/05/30 13:06:50;;;;;;;4.03;2.00;;;;;;;;;;5105661;28;20093;-69
2023/05/30 13:09:16;;;;;;;4.28;2.00;;;;;;;;;;5096509;28;20032;-69
2023/05/30 13:11:41;;;;;;;7.10;2.80;;;;;;;;;;5095197;28;20062;-69
2023/05/30 13:14:07;;;;;;;4.68;2.80;;;;;;;;;;5106829;28;20020;-69
2023/05/30 13:16:32;;;;;;;3.85;2.63;;;;;;;;;;5091772;28;20027;-69
2023/05/30 13:18:57;;;;;;;4.72;2.65;;;;;;;;;;5075079;28;20017;-69
2023/05/30 13:21:23;;;;;;;4.97;2.38;;;;;;;;;;5074845;28;20099;-69
2023/05/30 13:23:48;;;;;;;5.05;2.55;;;;;;;;;;5075029;28;20024;-69
2023/05/30 13:26:13;;;;;;;5.05;1.70;;;;;;;;;;5062125;28;20023;-69
2023/05/30 13:28:39;;;;;;;3.47;1.60;;;;;;;;;;5115967;28;20172;-69
2023/05/30 13:31:04;;;;;;;3.10;1.50;;;;;;;;;;5097372;28;20022;-69
2023/05/30 13:33:34;;;;;;;3.15;1.45;;;;;;;;;;5101228;28;20312;-69
2023/05/30 13:35:59;;;;;;;3.30;1.85;;;;;;;;;;5095120;28;20525;-69
2023/05/30 13:38:27;;;;;;;3.35;1.67;;;;;;;;;;5115226;28;20011;-69
2023/05/30 13:40:53;;;;;;;6.28;1.55;;;;;;;;;;5114953;28;20397;-69
2023/05/30 13:43:19;;;;;;;3.13;1.50;;;;;;;;;;5111146;28;20034;-70
2023/05/30 13:45:44;;;;;;;4.63;1.70;;;;;;;;;;5096736;28;20035;-70
2023/05/30 13:48:09;;;;;;;3.33;1.60;;;;;;;;;;5106839;28;20032;-69
2023/05/30 13:50:37;;;;;;;3.40;1.52;;;;;;;;;;5100429;28;20039;-70
2023/05/30 13:53:03;;;;;;;2.75;1.80;;;;;;;;;;5105725;28;20024;-70
2023/05/30 13:55:29;;;;;;;4.85;1.90;;;;;;;;;;5094428;28;20042;-69
2023/05/30 13:57:54;;;;;;;3.42;1.70;;;;;;;;;;5105388;28;20024;-69
2023/05/30 14:00:20;;;;;;;2.92;1.50;;;;;;;;;;5093721;28;20016;-69
2023/05/30 14:02:45;;;;;;;3.25;1.77;;;;;;;;;;5072234;28;20118;-70
2023/05/30 14:05:10;;;;;;;3.92;1.70;;;;;;;;;;5073126;28;20396;-70
2023/05/30 14:07:36;;;;;;;3.47;1.50;;;;;;;;;;5090925;28;20020;-70
2023/05/30 14:10:01;;;;;;;4.50;1.48;;;;;;;;;;5115294;28;20028;-69
2023/05/30 14:12:27;;;;;;;3.85;1.50;;;;;;;;;;5100144;28;20047;-70
2023/05/30 14:14:52;;;;;;;4.20;1.60;;;;;;;;;;5115844;28;20499;-69
2023/05/30 14:17:18;;;;;;;2.70;1.50;;;;;;;;;;5111985;28;20019;-69
2023/05/30 14:19:43;;;;;;;3.47;1.40;;;;;;;;;;5112837;28;20513;-70
2023/05/30 14:22:10;;;;;;;2.55;1.33;;;;;;;;;;5096359;28;20037;-70
2023/05/30 14:24:35;;;;;;;3.33;1.80;;;;;;;;;;5106154;28;20020;-70
2023/05/30 14:27:00;;;;;;;3.22;1.65;;;;;;;;;;5095125;28;20023;-70
2023/05/30 14:29:26;;;;;;;4.80;1.80;;;;;;;;;;5115375;28;20027;-70
2023/05/30 14:31:51;;;;;;;3.13;1.50;;;;;;;;;;5096494;28;20477;-69
2023/05/30 14:34:16;;;;;;;3.03;1.70;;;;;;;;;;5094138;28;20044;-69
2023/05/30 14:36:42;;;;;;;5.30;1.83;;;;;;;;;;5096443;28;20020;-69